sensor_id;sensor_type;location;lat;lon;timestamp;temperature;humidity
56542;DHT22;42438;53.174;6.730;2023-02-11T00:01:55;6.40;99.90
56542;DHT22;42438;53.174;6.730;2023-02-11T00:04:26;6.70;99.90
56542;DHT22;42438;53.174;6.730;2023-02-11T00:06:57;6.30;99.90
56542;DHT22;42438;53.174;6.730;2023-02-11T00:09:27;6.80;99.90
56542;DHT22;42438;53.174;6.730;2023-02-11T00:11:58;6.40;99.90
56542;DHT22;42438;53.174;6.730;2023-02-11T00:14:28;6.80;99.90
56542;DHT22;42438;53.174;6.730;2023-02-11T00:16:59;6.50;99.90
56542;DHT22;42438;53.174;6.730;2023-02-11T00:19:30;6.90;99.90
56542;DHT22;42438;53.174;6.730;2023-02-11T00:22:00;6.40;99.90
56542;DHT22;42438;53.174;6.730;2023-02-11T00:24:31;6.50;99.90
56542;DHT22;42438;53.174;6.730;2023-02-11T00:27:02;6.70;99.90
56542;DHT22;42438;53.174;6.730;2023-02-11T00:29:32;6.20;99.90
56542;DHT22;42438;53.174;6.730;2023-02-11T00:32:04;7.00;99.90
56542;DHT22;42438;53.174;6.730;2023-02-11T00:34:35;6.30;99.90
56542;DHT22;42438;53.174;6.730;2023-02-11T00:37:07;7.50;99.90
56542;DHT22;42438;53.174;6.730;2023-02-11T00:39:38;6.60;99.90
56542;DHT22;42438;53.174;6.730;2023-02-11T00:42:13;6.50;99.90
56542;DHT22;42438;53.174;6.730;2023-02-11T00:44:44;7.10;99.90
56542;DHT22;42438;53.174;6.730;2023-02-11T00:47:15;6.50;99.90
56542;DHT22;42438;53.174;6.730;2023-02-11T00:49:45;6.50;99.90
56542;DHT22;42438;53.174;6.730;2023-02-11T00:52:16;6.50;99.90
56542;DHT22;42438;53.174;6.730;2023-02-11T00:54:47;6.60;99.90
56542;DHT22;42438;53.174;6.730;2023-02-11T00:57:17;6.70;99.90
56542;DHT22;42438;53.174;6.730;2023-02-11T00:59:48;6.80;99.90
56542;DHT22;42438;53.174;6.730;2023-02-11T01:02:19;6.40;99.90
56542;DHT22;42438;53.174;6.730;2023-02-11T01:04:50;6.70;99.90
56542;DHT22;42438;53.174;6.730;2023-02-11T01:07:21;6.60;99.90
56542;DHT22;42438;53.174;6.730;2023-02-11T01:09:51;6.70;99.90
56542;DHT22;42438;53.174;6.730;2023-02-11T01:12:22;6.30;99.90
56542;DHT22;42438;53.174;6.730;2023-02-11T01:14:53;6.60;99.90
56542;DHT22;42438;53.174;6.730;2023-02-11T01:17:24;6.80;99.90
56542;DHT22;42438;53.174;6.730;2023-02-11T01:19:54;6.80;99.90
56542;DHT22;42438;53.174;6.730;2023-02-11T01:22:25;6.60;99.90
56542;DHT22;42438;53.174;6.730;2023-02-11T01:24:56;6.90;99.90
56542;DHT22;42438;53.174;6.730;2023-02-11T01:27:26;6.90;99.90
56542;DHT22;42438;53.174;6.730;2023-02-11T01:29:57;6.70;99.90
56542;DHT22;42438;53.174;6.730;2023-02-11T01:32:28;6.80;99.90
56542;DHT22;42438;53.174;6.730;2023-02-11T01:34:58;6.50;99.90
56542;DHT22;42438;53.174;6.730;2023-02-11T01:37:32;7.00;99.90
56542;DHT22;42438;53.174;6.730;2023-02-11T01:40:03;6.60;99.90
56542;DHT22;42438;53.174;6.730;2023-02-11T01:42:34;6.60;99.90
56542;DHT22;42438;53.174;6.730;2023-02-11T01:48:17;6.50;99.90
56542;DHT22;42438;53.174;6.730;2023-02-11T01:50:51;6.50;99.90
56542;DHT22;42438;53.174;6.730;2023-02-11T01:53:23;6.40;99.90
56542;DHT22;42438;53.174;6.730;2023-02-11T01:56:14;6.20;99.90
56542;DHT22;42438;53.174;6.730;2023-02-11T01:59:10;6.50;99.90
56542;DHT22;42438;53.174;6.730;2023-02-11T02:01:45;6.60;99.90
56542;DHT22;42438;53.174;6.730;2023-02-11T02:04:18;6.60;99.90
56542;DHT22;42438;53.174;6.730;2023-02-11T02:06:55;6.60;99.90
56542;DHT22;42438;53.174;6.730;2023-02-11T02:09:35;6.60;99.90
56542;DHT22;42438;53.174;6.730;2023-02-11T02:12:06;6.50;99.90
56542;DHT22;42438;53.174;6.730;2023-02-11T02:14:38;6.70;99.90
56542;DHT22;42438;53.174;6.730;2023-02-11T02:17:29;6.50;99.90
56542;DHT22;42438;53.174;6.730;2023-02-11T02:20:25;6.60;99.90
56542;DHT22;42438;53.174;6.730;2023-02-11T02:37:09;6.40;99.90
56542;DHT22;42438;53.174;6.730;2023-02-11T02:39:44;6.10;99.90
56542;DHT22;42438;53.174;6.730;2023-02-11T02:42:17;6.40;99.90
56542;DHT22;42438;53.174;6.730;2023-02-11T02:44:50;6.60;99.90
56542;DHT22;42438;53.174;6.730;2023-02-11T02:47:21;6.10;99.90
56542;DHT22;42438;53.174;6.730;2023-02-11T02:49:52;6.10;99.90
56542;DHT22;42438;53.174;6.730;2023-02-11T02:55:55;6.10;99.90
56542;DHT22;42438;53.174;6.730;2023-02-11T03:09:41;6.60;99.90
56542;DHT22;42438;53.174;6.730;2023-02-11T03:12:15;6.40;99.90
56542;DHT22;42438;53.174;6.730;2023-02-11T03:14:48;6.10;99.90
56542;DHT22;42438;53.174;6.730;2023-02-11T03:17:20;6.00;99.90
56542;DHT22;42438;53.174;6.730;2023-02-11T03:19:51;6.40;99.90
56542;DHT22;42438;53.174;6.730;2023-02-11T03:22:31;6.60;99.90
56542;DHT22;42438;53.174;6.730;2023-02-11T03:25:03;6.30;99.90
56542;DHT22;42438;53.174;6.730;2023-02-11T03:27:42;5.70;99.90
56542;DHT22;42438;53.174;6.730;2023-02-11T03:30:19;6.60;99.90
56542;DHT22;42438;53.174;6.730;2023-02-11T03:32:58;6.40;99.90
56542;DHT22;42438;53.174;6.730;2023-02-11T03:35:54;6.70;99.90
56542;DHT22;42438;53.174;6.730;2023-02-11T03:38:37;6.40;99.90
56542;DHT22;42438;53.174;6.730;2023-02-11T03:41:12;6.60;99.90
56542;DHT22;42438;53.174;6.730;2023-02-11T03:43:47;6.50;99.90
56542;DHT22;42438;53.174;6.730;2023-02-11T03:46:24;6.40;99.90
56542;DHT22;42438;53.174;6.730;2023-02-11T03:49:01;6.90;99.90
56542;DHT22;42438;53.174;6.730;2023-02-11T03:51:32;7.10;99.90
56542;DHT22;42438;53.174;6.730;2023-02-11T03:54:08;6.60;99.90
56542;DHT22;42438;53.174;6.730;2023-02-11T03:56:54;6.60;99.90
56542;DHT22;42438;53.174;6.730;2023-02-11T03:59:25;7.20;99.90
56542;DHT22;42438;53.174;6.730;2023-02-11T04:01:55;6.60;99.90
56542;DHT22;42438;53.174;6.730;2023-02-11T04:04:28;7.00;99.90
56542;DHT22;42438;53.174;6.730;2023-02-11T04:06:59;7.10;99.90
56542;DHT22;42438;53.174;6.730;2023-02-11T04:09:30;6.70;99.90
56542;DHT22;42438;53.174;6.730;2023-02-11T04:12:00;6.60;99.90
56542;DHT22;42438;53.174;6.730;2023-02-11T04:14:31;6.80;99.90
56542;DHT22;42438;53.174;6.730;2023-02-11T04:17:02;7.10;99.90
56542;DHT22;42438;53.174;6.730;2023-02-11T04:19:33;7.20;99.90
56542;DHT22;42438;53.174;6.730;2023-02-11T04:22:05;6.80;99.90
56542;DHT22;42438;53.174;6.730;2023-02-11T04:24:36;6.90;99.90
56542;DHT22;42438;53.174;6.730;2023-02-11T04:27:06;6.80;99.90
56542;DHT22;42438;53.174;6.730;2023-02-11T04:29:37;7.30;99.90
56542;DHT22;42438;53.174;6.730;2023-02-11T04:32:09;6.80;99.90
56542;DHT22;42438;53.174;6.730;2023-02-11T04:34:40;6.90;99.90
56542;DHT22;42438;53.174;6.730;2023-02-11T04:39:41;6.70;99.90
56542;DHT22;42438;53.174;6.730;2023-02-11T04:42:12;7.30;99.90
56542;DHT22;42438;53.174;6.730;2023-02-11T04:44:43;7.20;99.90
56542;DHT22;42438;53.174;6.730;2023-02-11T04:52:16;6.70;99.90
56542;DHT22;42438;53.174;6.730;2023-02-11T04:54:46;6.40;99.90
56542;DHT22;42438;53.174;6.730;2023-02-11T04:57:17;6.80;99.90
56542;DHT22;42438;53.174;6.730;2023-02-11T04:59:47;6.30;99.90
56542;DHT22;42438;53.174;6.730;2023-02-11T05:02:18;6.50;99.90
56542;DHT22;42438;53.174;6.730;2023-02-11T05:04:49;6.70;99.90
56542;DHT22;42438;53.174;6.730;2023-02-11T05:07:19;6.50;99.90
56542;DHT22;42438;53.174;6.730;2023-02-11T05:09:50;6.80;99.90
56542;DHT22;42438;53.174;6.730;2023-02-11T05:12:20;6.50;99.90
56542;DHT22;42438;53.174;6.730;2023-02-11T05:14:51;6.80;99.90
56542;DHT22;42438;53.174;6.730;2023-02-11T05:17:22;6.90;99.90
56542;DHT22;42438;53.174;6.730;2023-02-11T05:19:52;6.90;99.90
56542;DHT22;42438;53.174;6.730;2023-02-11T05:22:23;7.10;99.90
56542;DHT22;42438;53.174;6.730;2023-02-11T05:24:54;6.70;99.90
56542;DHT22;42438;53.174;6.730;2023-02-11T05:27:24;6.60;99.90
56542;DHT22;42438;53.174;6.730;2023-02-11T05:29:55;7.20;99.90
56542;DHT22;42438;53.174;6.730;2023-02-11T05:32:26;7.00;99.90
56542;DHT22;42438;53.174;6.730;2023-02-11T05:34:56;6.90;99.90
56542;DHT22;42438;53.174;6.730;2023-02-11T05:37:27;6.40;99.90
56542;DHT22;42438;53.174;6.730;2023-02-11T05:39:57;7.10;99.90
56542;DHT22;42438;53.174;6.730;2023-02-11T05:42:28;6.60;99.90
56542;DHT22;42438;53.174;6.730;2023-02-11T05:44:59;6.70;99.90
56542;DHT22;42438;53.174;6.730;2023-02-11T05:47:30;6.30;99.90
56542;DHT22;42438;53.174;6.730;2023-02-11T05:50:00;6.50;99.90
56542;DHT22;42438;53.174;6.730;2023-02-11T05:52:31;6.50;99.90
56542;DHT22;42438;53.174;6.730;2023-02-11T05:55:02;6.40;99.90
56542;DHT22;42438;53.174;6.730;2023-02-11T05:57:33;6.40;99.90
56542;DHT22;42438;53.174;6.730;2023-02-11T06:00:04;6.50;99.90
56542;DHT22;42438;53.174;6.730;2023-02-11T06:02:35;6.50;99.90
56542;DHT22;42438;53.174;6.730;2023-02-11T06:05:06;6.70;99.90
56542;DHT22;42438;53.174;6.730;2023-02-11T06:07:37;6.60;99.90
56542;DHT22;42438;53.174;6.730;2023-02-11T06:10:09;6.50;99.90
56542;DHT22;42438;53.174;6.730;2023-02-11T06:12:39;6.50;99.90
56542;DHT22;42438;53.174;6.730;2023-02-11T06:15:10;5.90;99.90
56542;DHT22;42438;53.174;6.730;2023-02-11T06:17:41;6.20;99.90
56542;DHT22;42438;53.174;6.730;2023-02-11T06:20:11;6.20;99.90
56542;DHT22;42438;53.174;6.730;2023-02-11T06:22:42;6.70;99.90
56542;DHT22;42438;53.174;6.730;2023-02-11T06:25:13;6.60;99.90
56542;DHT22;42438;53.174;6.730;2023-02-11T06:27:44;6.40;99.90
56542;DHT22;42438;53.174;6.730;2023-02-11T06:30:15;6.40;99.90
56542;DHT22;42438;53.174;6.730;2023-02-11T06:32:45;6.70;99.90
56542;DHT22;42438;53.174;6.730;2023-02-11T06:35:16;6.30;99.90
56542;DHT22;42438;53.174;6.730;2023-02-11T06:37:47;6.20;99.90
56542;DHT22;42438;53.174;6.730;2023-02-11T06:40:19;6.40;99.90
56542;DHT22;42438;53.174;6.730;2023-02-11T06:42:50;6.10;99.90
56542;DHT22;42438;53.174;6.730;2023-02-11T06:45:21;6.40;99.90
56542;DHT22;42438;53.174;6.730;2023-02-11T06:47:51;6.50;99.90
56542;DHT22;42438;53.174;6.730;2023-02-11T06:50:22;6.30;99.90
56542;DHT22;42438;53.174;6.730;2023-02-11T06:52:53;6.40;99.90
56542;DHT22;42438;53.174;6.730;2023-02-11T06:55:23;6.30;99.90
56542;DHT22;42438;53.174;6.730;2023-02-11T06:57:54;6.40;99.90
56542;DHT22;42438;53.174;6.730;2023-02-11T07:00:25;6.30;99.90
56542;DHT22;42438;53.174;6.730;2023-02-11T07:02:55;6.40;99.90
56542;DHT22;42438;53.174;6.730;2023-02-11T07:05:26;6.40;99.90
56542;DHT22;42438;53.174;6.730;2023-02-11T07:07:57;6.40;99.90
56542;DHT22;42438;53.174;6.730;2023-02-11T07:10:27;7.30;99.90
56542;DHT22;42438;53.174;6.730;2023-02-11T07:12:58;6.60;99.90
56542;DHT22;42438;53.174;6.730;2023-02-11T07:15:29;6.40;99.90
56542;DHT22;42438;53.174;6.730;2023-02-11T07:17:59;6.60;99.90
56542;DHT22;42438;53.174;6.730;2023-02-11T07:20:30;6.80;99.90
56542;DHT22;42438;53.174;6.730;2023-02-11T07:23:00;6.70;99.90
56542;DHT22;42438;53.174;6.730;2023-02-11T07:25:31;7.10;99.90
56542;DHT22;42438;53.174;6.730;2023-02-11T07:28:03;6.60;99.90
56542;DHT22;42438;53.174;6.730;2023-02-11T07:30:33;6.60;99.90
56542;DHT22;42438;53.174;6.730;2023-02-11T07:33:04;6.70;99.90
56542;DHT22;42438;53.174;6.730;2023-02-11T07:35:34;7.40;99.90
56542;DHT22;42438;53.174;6.730;2023-02-11T07:38:05;6.90;99.90
56542;DHT22;42438;53.174;6.730;2023-02-11T07:40:36;7.10;99.90
56542;DHT22;42438;53.174;6.730;2023-02-11T07:43:06;7.20;99.90
56542;DHT22;42438;53.174;6.730;2023-02-11T07:45:38;6.80;99.90
56542;DHT22;42438;53.174;6.730;2023-02-11T07:48:08;8.00;99.90
56542;DHT22;42438;53.174;6.730;2023-02-11T07:50:39;7.40;99.90
56542;DHT22;42438;53.174;6.730;2023-02-11T07:53:10;6.90;99.90
56542;DHT22;42438;53.174;6.730;2023-02-11T07:55:42;7.10;99.90
56542;DHT22;42438;53.174;6.730;2023-02-11T07:58:12;7.30;99.90
56542;DHT22;42438;53.174;6.730;2023-02-11T08:00:43;7.30;99.90
56542;DHT22;42438;53.174;6.730;2023-02-11T08:03:15;7.00;99.90
56542;DHT22;42438;53.174;6.730;2023-02-11T08:05:45;7.60;99.90
56542;DHT22;42438;53.174;6.730;2023-02-11T08:08:16;7.10;99.90
56542;DHT22;42438;53.174;6.730;2023-02-11T08:10:46;7.40;99.90
56542;DHT22;42438;53.174;6.730;2023-02-11T08:13:17;7.70;99.90
56542;DHT22;42438;53.174;6.730;2023-02-11T08:15:48;7.10;99.90
56542;DHT22;42438;53.174;6.730;2023-02-11T08:18:18;7.60;99.90
56542;DHT22;42438;53.174;6.730;2023-02-11T08:20:49;7.90;99.90
56542;DHT22;42438;53.174;6.730;2023-02-11T08:23:20;7.50;99.90
56542;DHT22;42438;53.174;6.730;2023-02-11T08:25:50;7.20;99.90
56542;DHT22;42438;53.174;6.730;2023-02-11T08:28:21;7.30;99.90
56542;DHT22;42438;53.174;6.730;2023-02-11T08:30:51;7.50;99.90
56542;DHT22;42438;53.174;6.730;2023-02-11T08:33:22;7.50;99.90
56542;DHT22;42438;53.174;6.730;2023-02-11T08:35:53;7.70;99.90
56542;DHT22;42438;53.174;6.730;2023-02-11T08:38:23;7.60;99.90
56542;DHT22;42438;53.174;6.730;2023-02-11T08:40:54;7.90;99.90
56542;DHT22;42438;53.174;6.730;2023-02-11T08:43:25;7.60;99.90
56542;DHT22;42438;53.174;6.730;2023-02-11T08:45:55;7.90;99.90
56542;DHT22;42438;53.174;6.730;2023-02-11T08:48:26;7.60;99.90
56542;DHT22;42438;53.174;6.730;2023-02-11T08:50:58;8.10;99.90
56542;DHT22;42438;53.174;6.730;2023-02-11T08:53:28;7.30;99.90
56542;DHT22;42438;53.174;6.730;2023-02-11T08:55:59;7.70;99.90
56542;DHT22;42438;53.174;6.730;2023-02-11T08:58:29;8.10;99.90
56542;DHT22;42438;53.174;6.730;2023-02-11T09:01:00;7.80;99.90
56542;DHT22;42438;53.174;6.730;2023-02-11T09:03:31;8.10;99.90
56542;DHT22;42438;53.174;6.730;2023-02-11T09:06:04;8.00;99.90
56542;DHT22;42438;53.174;6.730;2023-02-11T09:08:36;7.80;99.90
56542;DHT22;42438;53.174;6.730;2023-02-11T09:11:08;8.10;99.90
56542;DHT22;42438;53.174;6.730;2023-02-11T09:13:41;8.00;99.90
56542;DHT22;42438;53.174;6.730;2023-02-11T09:16:22;8.30;99.90
56542;DHT22;42438;53.174;6.730;2023-02-11T09:18:55;7.80;99.90
56542;DHT22;42438;53.174;6.730;2023-02-11T09:21:27;8.20;99.90
56542;DHT22;42438;53.174;6.730;2023-02-11T09:23:57;7.90;99.90
56542;DHT22;42438;53.174;6.730;2023-02-11T09:26:30;8.10;99.90
56542;DHT22;42438;53.174;6.730;2023-02-11T09:29:03;8.30;99.90
56542;DHT22;42438;53.174;6.730;2023-02-11T09:31:33;8.20;99.90
56542;DHT22;42438;53.174;6.730;2023-02-11T09:34:05;8.60;99.90
56542;DHT22;42438;53.174;6.730;2023-02-11T09:36:37;8.20;99.90
56542;DHT22;42438;53.174;6.730;2023-02-11T09:39:17;8.20;99.90
56542;DHT22;42438;53.174;6.730;2023-02-11T09:44:36;8.00;99.90
56542;DHT22;42438;53.174;6.730;2023-02-11T09:47:33;8.60;99.90
56542;DHT22;42438;53.174;6.730;2023-02-11T09:50:14;8.20;99.90
56542;DHT22;42438;53.174;6.730;2023-02-11T09:52:59;7.90;99.90
56542;DHT22;42438;53.174;6.730;2023-02-11T09:55:37;8.50;99.90
56542;DHT22;42438;53.174;6.730;2023-02-11T09:58:39;8.30;99.90
56542;DHT22;42438;53.174;6.730;2023-02-11T10:15:46;8.60;99.90
56542;DHT22;42438;53.174;6.730;2023-02-11T10:23:32;9.20;99.90
56542;DHT22;42438;53.174;6.730;2023-02-11T10:26:11;9.00;99.90
56542;DHT22;42438;53.174;6.730;2023-02-11T10:28:45;9.10;99.90
56542;DHT22;42438;53.174;6.730;2023-02-11T10:34:03;8.90;99.90
56542;DHT22;42438;53.174;6.730;2023-02-11T10:36:39;9.70;99.90
56542;DHT22;42438;53.174;6.730;2023-02-11T10:39:13;9.50;99.90
56542;DHT22;42438;53.174;6.730;2023-02-11T11:02:33;9.30;99.90
56542;DHT22;42438;53.174;6.730;2023-02-11T11:05:15;9.70;99.90
56542;DHT22;42438;53.174;6.730;2023-02-11T11:08:12;9.60;99.90
56542;DHT22;42438;53.174;6.730;2023-02-11T11:11:01;9.80;99.90
56542;DHT22;42438;53.174;6.730;2023-02-11T11:13:38;9.50;99.90
56542;DHT22;42438;53.174;6.730;2023-02-11T11:18:43;9.70;99.90
56542;DHT22;42438;53.174;6.730;2023-02-11T11:21:21;9.70;99.90
56542;DHT22;42438;53.174;6.730;2023-02-11T11:23:57;9.70;99.90
56542;DHT22;42438;53.174;6.730;2023-02-11T11:26:40;9.50;99.90
56542;DHT22;42438;53.174;6.730;2023-02-11T11:34:31;9.30;99.90
56542;DHT22;42438;53.174;6.730;2023-02-11T11:37:13;9.70;99.90
56542;DHT22;42438;53.174;6.730;2023-02-11T11:40:29;9.60;99.90
56542;DHT22;42438;53.174;6.730;2023-02-11T11:45:56;9.50;99.90
56542;DHT22;42438;53.174;6.730;2023-02-11T11:51:09;10.00;99.90
56542;DHT22;42438;53.174;6.730;2023-02-11T11:54:05;9.90;99.90
56542;DHT22;42438;53.174;6.730;2023-02-11T11:56:45;9.70;99.90
56542;DHT22;42438;53.174;6.730;2023-02-11T11:59:16;9.90;99.90
56542;DHT22;42438;53.174;6.730;2023-02-11T12:02:21;10.00;99.90
56542;DHT22;42438;53.174;6.730;2023-02-11T12:04:53;9.60;99.90
56542;DHT22;42438;53.174;6.730;2023-02-11T12:07:55;9.60;99.90
56542;DHT22;42438;53.174;6.730;2023-02-11T12:24:57;9.60;99.90
56542;DHT22;42438;53.174;6.730;2023-02-11T12:36:52;9.70;99.90
56542;DHT22;42438;53.174;6.730;2023-02-11T12:42:22;10.10;99.90
56542;DHT22;42438;53.174;6.730;2023-02-11T12:48:20;9.70;99.90
56542;DHT22;42438;53.174;6.730;2023-02-11T12:57:14;9.70;99.90
56542;DHT22;42438;53.174;6.730;2023-02-11T13:01:59;9.70;99.90
56542;DHT22;42438;53.174;6.730;2023-02-11T13:04:40;9.90;99.90
56542;DHT22;42438;53.174;6.730;2023-02-11T13:07:36;9.90;99.90
56542;DHT22;42438;53.174;6.730;2023-02-11T13:10:29;9.60;99.90
56542;DHT22;42438;53.174;6.730;2023-02-11T13:13:13;9.50;99.90
56542;DHT22;42438;53.174;6.730;2023-02-11T13:16:12;9.80;99.90
56542;DHT22;42438;53.174;6.730;2023-02-11T13:25:06;9.40;99.90
56542;DHT22;42438;53.174;6.730;2023-02-11T13:27:50;10.00;99.90
56542;DHT22;42438;53.174;6.730;2023-02-11T13:30:30;9.80;99.90
56542;DHT22;42438;53.174;6.730;2023-02-11T13:33:16;9.90;99.90
56542;DHT22;42438;53.174;6.730;2023-02-11T13:38:29;9.30;99.90
56542;DHT22;42438;53.174;6.730;2023-02-11T13:41:16;9.60;99.90
56542;DHT22;42438;53.174;6.730;2023-02-11T13:46:46;9.60;99.90
56542;DHT22;42438;53.174;6.730;2023-02-11T13:49:38;9.40;99.90
56542;DHT22;42438;53.174;6.730;2023-02-11T13:54:56;9.40;99.90
56542;DHT22;42438;53.174;6.730;2023-02-11T13:57:32;9.50;99.90
56542;DHT22;42438;53.174;6.730;2023-02-11T14:11:46;9.10;99.90
56542;DHT22;42438;53.174;6.730;2023-02-11T14:14:27;9.70;99.90
56542;DHT22;42438;53.174;6.730;2023-02-11T14:19:32;9.40;99.90
56542;DHT22;42438;53.174;6.730;2023-02-11T14:22:25;9.10;99.90
56542;DHT22;42438;53.174;6.730;2023-02-11T14:25:03;9.50;99.90
56542;DHT22;42438;53.174;6.730;2023-02-11T14:27:41;8.80;99.90
56542;DHT22;42438;53.174;6.730;2023-02-11T14:33:01;9.10;99.90
56542;DHT22;42438;53.174;6.730;2023-02-11T14:43:49;9.20;99.90
56542;DHT22;42438;53.174;6.730;2023-02-11T14:46:22;9.30;99.90
56542;DHT22;42438;53.174;6.730;2023-02-11T14:48:56;9.50;99.90
56542;DHT22;42438;53.174;6.730;2023-02-11T14:51:31;9.20;99.90
56542;DHT22;42438;53.174;6.730;2023-02-11T14:54:16;9.00;99.90
56542;DHT22;42438;53.174;6.730;2023-02-11T14:57:12;9.10;99.90
56542;DHT22;42438;53.174;6.730;2023-02-11T14:59:58;9.20;99.90
56542;DHT22;42438;53.174;6.730;2023-02-11T15:02:35;9.20;99.90
56542;DHT22;42438;53.174;6.730;2023-02-11T15:05:20;9.10;99.90
56542;DHT22;42438;53.174;6.730;2023-02-11T15:07:53;9.00;99.90
56542;DHT22;42438;53.174;6.730;2023-02-11T15:10:45;9.30;99.90
56542;DHT22;42438;53.174;6.730;2023-02-11T15:13:18;9.30;99.90
56542;DHT22;42438;53.174;6.730;2023-02-11T15:15:54;9.50;99.90
56542;DHT22;42438;53.174;6.730;2023-02-11T15:18:35;9.20;99.90
56542;DHT22;42438;53.174;6.730;2023-02-11T15:21:07;8.90;99.90
56542;DHT22;42438;53.174;6.730;2023-02-11T15:23:39;9.20;99.90
56542;DHT22;42438;53.174;6.730;2023-02-11T15:26:21;9.00;99.90
56542;DHT22;42438;53.174;6.730;2023-02-11T15:28:51;8.90;99.90
56542;DHT22;42438;53.174;6.730;2023-02-11T15:31:24;9.30;99.90
56542;DHT22;42438;53.174;6.730;2023-02-11T15:34:06;9.20;99.90
56542;DHT22;42438;53.174;6.730;2023-02-11T15:36:37;9.10;99.90
56542;DHT22;42438;53.174;6.730;2023-02-11T15:39:26;9.10;99.90
56542;DHT22;42438;53.174;6.730;2023-02-11T15:42:26;8.80;99.90
56542;DHT22;42438;53.174;6.730;2023-02-11T15:45:10;8.80;99.90
56542;DHT22;42438;53.174;6.730;2023-02-11T15:47:52;8.90;99.90
56542;DHT22;42438;53.174;6.730;2023-02-11T15:50:29;9.20;99.90
56542;DHT22;42438;53.174;6.730;2023-02-11T15:53:11;9.10;99.90
56542;DHT22;42438;53.174;6.730;2023-02-11T15:55:44;9.20;99.90
56542;DHT22;42438;53.174;6.730;2023-02-11T15:58:15;9.00;99.90
56542;DHT22;42438;53.174;6.730;2023-02-11T16:00:49;8.90;99.90
56542;DHT22;42438;53.174;6.730;2023-02-11T16:03:25;9.20;99.90
56542;DHT22;42438;53.174;6.730;2023-02-11T16:06:23;8.90;99.90
56542;DHT22;42438;53.174;6.730;2023-02-11T16:11:34;8.80;99.90
56542;DHT22;42438;53.174;6.730;2023-02-11T16:17:10;8.50;99.90
56542;DHT22;42438;53.174;6.730;2023-02-11T16:19:46;9.10;99.90
56542;DHT22;42438;53.174;6.730;2023-02-11T16:22:21;8.80;99.90
56542;DHT22;42438;53.174;6.730;2023-02-11T16:24:55;8.90;99.90
56542;DHT22;42438;53.174;6.730;2023-02-11T16:27:30;8.70;99.90
56542;DHT22;42438;53.174;6.730;2023-02-11T16:30:04;8.80;99.90
56542;DHT22;42438;53.174;6.730;2023-02-11T16:32:35;8.40;99.90
56542;DHT22;42438;53.174;6.730;2023-02-11T16:35:10;8.90;99.90
56542;DHT22;42438;53.174;6.730;2023-02-11T16:37:41;8.80;99.90
56542;DHT22;42438;53.174;6.730;2023-02-11T16:40:12;8.80;99.90
56542;DHT22;42438;53.174;6.730;2023-02-11T16:42:43;8.40;99.90
56542;DHT22;42438;53.174;6.730;2023-02-11T16:45:14;9.10;99.90
56542;DHT22;42438;53.174;6.730;2023-02-11T16:47:45;8.40;99.90
56542;DHT22;42438;53.174;6.730;2023-02-11T16:50:23;8.50;99.90
56542;DHT22;42438;53.174;6.730;2023-02-11T16:52:54;8.60;99.90
56542;DHT22;42438;53.174;6.730;2023-02-11T16:55:25;8.30;99.90
56542;DHT22;42438;53.174;6.730;2023-02-11T16:57:55;8.40;99.90
56542;DHT22;42438;53.174;6.730;2023-02-11T17:00:26;8.30;99.90
56542;DHT22;42438;53.174;6.730;2023-02-11T17:02:57;8.00;99.90
56542;DHT22;42438;53.174;6.730;2023-02-11T17:05:28;8.70;99.90
56542;DHT22;42438;53.174;6.730;2023-02-11T17:07:58;8.60;99.90
56542;DHT22;42438;53.174;6.730;2023-02-11T17:10:31;8.30;99.90
56542;DHT22;42438;53.174;6.730;2023-02-11T17:13:02;8.30;99.90
56542;DHT22;42438;53.174;6.730;2023-02-11T17:15:36;8.50;99.90
56542;DHT22;42438;53.174;6.730;2023-02-11T17:18:09;8.90;99.90
56542;DHT22;42438;53.174;6.730;2023-02-11T17:20:40;8.40;99.90
56542;DHT22;42438;53.174;6.730;2023-02-11T17:23:11;8.30;99.90
56542;DHT22;42438;53.174;6.730;2023-02-11T17:25:42;8.70;99.90
56542;DHT22;42438;53.174;6.730;2023-02-11T17:28:13;8.20;99.90
56542;DHT22;42438;53.174;6.730;2023-02-11T17:30:43;8.70;99.90
56542;DHT22;42438;53.174;6.730;2023-02-11T17:33:14;8.30;99.90
56542;DHT22;42438;53.174;6.730;2023-02-11T17:35:45;8.70;99.90
56542;DHT22;42438;53.174;6.730;2023-02-11T17:38:16;8.70;99.90
56542;DHT22;42438;53.174;6.730;2023-02-11T17:40:56;8.30;99.90
56542;DHT22;42438;53.174;6.730;2023-02-11T17:43:27;8.10;99.90
56542;DHT22;42438;53.174;6.730;2023-02-11T17:45:57;8.20;99.90
56542;DHT22;42438;53.174;6.730;2023-02-11T17:48:28;8.20;99.90
56542;DHT22;42438;53.174;6.730;2023-02-11T17:50:59;8.20;99.90
56542;DHT22;42438;53.174;6.730;2023-02-11T17:53:30;8.60;99.90
56542;DHT22;42438;53.174;6.730;2023-02-11T17:56:01;8.30;99.90
56542;DHT22;42438;53.174;6.730;2023-02-11T17:58:35;8.20;99.90
56542;DHT22;42438;53.174;6.730;2023-02-11T18:01:06;8.60;99.90
56542;DHT22;42438;53.174;6.730;2023-02-11T18:03:36;8.30;99.90
56542;DHT22;42438;53.174;6.730;2023-02-11T18:06:07;8.60;99.90
56542;DHT22;42438;53.174;6.730;2023-02-11T18:08:38;8.00;99.90
56542;DHT22;42438;53.174;6.730;2023-02-11T18:11:10;8.30;99.90
56542;DHT22;42438;53.174;6.730;2023-02-11T18:13:42;8.30;99.90
56542;DHT22;42438;53.174;6.730;2023-02-11T18:16:13;8.20;99.90
56542;DHT22;42438;53.174;6.730;2023-02-11T18:18:44;8.30;99.90
56542;DHT22;42438;53.174;6.730;2023-02-11T18:21:17;8.00;99.90
56542;DHT22;42438;53.174;6.730;2023-02-11T18:23:49;7.60;99.90
56542;DHT22;42438;53.174;6.730;2023-02-11T18:26:20;8.30;99.90
56542;DHT22;42438;53.174;6.730;2023-02-11T18:28:51;7.90;99.90
56542;DHT22;42438;53.174;6.730;2023-02-11T18:31:23;7.70;99.90
56542;DHT22;42438;53.174;6.730;2023-02-11T18:33:53;7.90;99.90
56542;DHT22;42438;53.174;6.730;2023-02-11T18:36:24;7.90;99.90
56542;DHT22;42438;53.174;6.730;2023-02-11T18:38:55;8.20;99.90
56542;DHT22;42438;53.174;6.730;2023-02-11T18:41:27;8.40;99.90
56542;DHT22;42438;53.174;6.730;2023-02-11T18:43:58;7.80;99.90
56542;DHT22;42438;53.174;6.730;2023-02-11T18:46:32;7.60;99.90
56542;DHT22;42438;53.174;6.730;2023-02-11T18:49:03;8.00;99.90
56542;DHT22;42438;53.174;6.730;2023-02-11T18:51:33;7.50;99.90
56542;DHT22;42438;53.174;6.730;2023-02-11T18:54:04;7.60;99.90
56542;DHT22;42438;53.174;6.730;2023-02-11T18:59:06;7.20;99.90
56542;DHT22;42438;53.174;6.730;2023-02-11T20:30:08;6.60;99.90
56542;DHT22;42438;53.174;6.730;2023-02-11T20:32:39;6.60;99.90
56542;DHT22;42438;53.174;6.730;2023-02-11T20:35:09;6.60;99.90
56542;DHT22;42438;53.174;6.730;2023-02-11T20:37:40;6.40;99.90
56542;DHT22;42438;53.174;6.730;2023-02-11T20:40:11;6.20;99.90
56542;DHT22;42438;53.174;6.730;2023-02-11T20:42:42;6.30;99.90
56542;DHT22;42438;53.174;6.730;2023-02-11T20:45:12;6.40;99.90
56542;DHT22;42438;53.174;6.730;2023-02-11T20:47:43;6.30;99.90
56542;DHT22;42438;53.174;6.730;2023-02-11T20:50:14;6.70;99.90
56542;DHT22;42438;53.174;6.730;2023-02-11T20:52:44;6.80;99.90
56542;DHT22;42438;53.174;6.730;2023-02-11T20:55:15;6.50;99.90
56542;DHT22;42438;53.174;6.730;2023-02-11T20:57:46;6.40;99.90
56542;DHT22;42438;53.174;6.730;2023-02-11T21:00:17;6.40;99.90
56542;DHT22;42438;53.174;6.730;2023-02-11T21:02:51;6.20;99.90